NKS350 KMYR-KACY
Flight info
| Callsign | NKS350 |
|---|---|
| Flight time | 1h 6m |
| Altitude | 37000 |
| Route | RAPZZ Q135 RREGG Q117 SAWED Q97 ZJAAY RADDS SIE |
| Aircraft | A320/M-SDE3FGHIRWY/LB1 |
Departure
| Time | 2026-05-09 19:59 |
|---|---|
| Airport | Myrtle Beach International Airport (KMYR) |
Arrival
| Time | 2026-05-09 21:05 |
|---|---|
| Airport | Atlantic City International Airport (KACY) |
| Time | Latitude | Longitude | Altitude | Speed | Heading |
|---|---|---|---|---|---|
| 2026-05-09 19:19 | 33.68168 | -78.92383 | 32 ft | 0 kts | 76° |
| 2026-05-09 19:43 | 33.68168 | -78.92385 | 32 ft | 1 kts | 76° |
| 2026-05-09 19:43 | 33.68164 | -78.92404 | 32 ft | 3 kts | 79° |
| 2026-05-09 19:43 | 33.68161 | -78.92426 | 32 ft | 2 kts | 77° |
| 2026-05-09 19:43 | 33.68159 | -78.92433 | 32 ft | 0 kts | 77° |
| 2026-05-09 19:44 | 33.68159 | -78.92434 | 32 ft | 0 kts | 77° |
| 2026-05-09 19:47 | 33.68161 | -78.92431 | 32 ft | 1 kts | 66° |
| 2026-05-09 19:48 | 33.68167 | -78.92436 | 32 ft | 1 kts | 327° |
| 2026-05-09 19:48 | 33.68165 | -78.92442 | 32 ft | 1 kts | 257° |
| 2026-05-09 19:48 | 33.68148 | -78.92466 | 32 ft | 6 kts | 233° |
| 2026-05-09 19:48 | 33.68119 | -78.92513 | 32 ft | 8 kts | 236° |
| 2026-05-09 19:49 | 33.68130 | -78.92577 | 32 ft | 9 kts | 316° |
| 2026-05-09 19:49 | 33.68157 | -78.92588 | 32 ft | 0 kts | 357° |
| 2026-05-09 19:50 | 33.68175 | -78.92587 | 32 ft | 7 kts | 10° |
| 2026-05-09 19:50 | 33.68223 | -78.92559 | 31 ft | 6 kts | 30° |
| 2026-05-09 19:50 | 33.68270 | -78.92557 | 32 ft | 8 kts | 351° |
| 2026-05-09 19:50 | 33.68355 | -78.92578 | 32 ft | 17 kts | 348° |
| 2026-05-09 19:51 | 33.68492 | -78.92612 | 32 ft | 22 kts | 348° |
| 2026-05-09 19:51 | 33.68637 | -78.92649 | 32 ft | 21 kts | 348° |
| 2026-05-09 19:51 | 33.68781 | -78.92687 | 32 ft | 14 kts | 347° |
| 2026-05-09 19:51 | 33.68878 | -78.92710 | 32 ft | 14 kts | 348° |
| 2026-05-09 19:52 | 33.68978 | -78.92736 | 32 ft | 16 kts | 348° |
| 2026-05-09 19:52 | 33.69093 | -78.92764 | 32 ft | 18 kts | 348° |
| 2026-05-09 19:52 | 33.69218 | -78.92795 | 32 ft | 15 kts | 349° |
| 2026-05-09 19:52 | 33.69288 | -78.92826 | 31 ft | 11 kts | 309° |
| 2026-05-09 19:53 | 33.69282 | -78.92915 | 32 ft | 12 kts | 258° |
| 2026-05-09 19:53 | 33.69264 | -78.93021 | 32 ft | 14 kts | 258° |
| 2026-05-09 19:53 | 33.69258 | -78.93053 | 32 ft | 0 kts | 257° |
| 2026-05-09 19:56 | 33.69255 | -78.93073 | 32 ft | 6 kts | 257° |
| 2026-05-09 19:56 | 33.69232 | -78.93136 | 31 ft | 9 kts | 214° |
| 2026-05-09 19:57 | 33.69194 | -78.93137 | 33 ft | 0 kts | 167° |
| 2026-05-09 19:58 | 33.69175 | -78.93132 | 33 ft | 21 kts | 167° |
| 2026-05-09 19:58 | 33.68790 | -78.93034 | 32 ft | 90 kts | 168° |
| 2026-05-09 19:58 | 33.67997 | -78.92839 | 32 ft | 140 kts | 168° |
| 2026-05-09 19:58 | 33.66916 | -78.92574 | 209 ft | 162 kts | 169° |
| 2026-05-09 19:59 | 33.65835 | -78.92305 | 860 ft | 159 kts | 168° |
| 2026-05-09 19:59 | 33.64748 | -78.92023 | 1449 ft | 160 kts | 168° |
| 2026-05-09 19:59 | 33.63669 | -78.91563 | 1848 ft | 176 kts | 142° |
| 2026-05-09 19:59 | 33.62980 | -78.90262 | 2126 ft | 201 kts | 103° |
| 2026-05-09 20:00 | 33.63164 | -78.88522 | 2400 ft | 227 kts | 63° |
| 2026-05-09 20:00 | 33.64310 | -78.87087 | 2697 ft | 252 kts | 35° |
| 2026-05-09 20:00 | 33.65886 | -78.85957 | 3125 ft | 275 kts | 27° |
| 2026-05-09 20:00 | 33.67632 | -78.84923 | 3840 ft | 284 kts | 24° |
| 2026-05-09 20:01 | 33.69431 | -78.83903 | 4697 ft | 289 kts | 24° |
| 2026-05-09 20:01 | 33.71264 | -78.82848 | 5529 ft | 294 kts | 24° |
| 2026-05-09 20:01 | 33.73072 | -78.81773 | 6359 ft | 298 kts | 24° |
| 2026-05-09 20:01 | 33.74986 | -78.80602 | 7223 ft | 303 kts | 24° |
| 2026-05-09 20:02 | 33.76863 | -78.79432 | 8007 ft | 308 kts | 24° |
| 2026-05-09 20:02 | 33.78774 | -78.78231 | 8789 ft | 312 kts | 24° |
| 2026-05-09 20:02 | 33.80736 | -78.76995 | 9534 ft | 315 kts | 24° |
| 2026-05-09 20:03 | 33.84762 | -78.74465 | 10412 ft | 347 kts | 23° |
| 2026-05-09 20:03 | 33.86929 | -78.73104 | 10720 ft | 364 kts | 23° |
| 2026-05-09 20:03 | 33.89225 | -78.71652 | 11330 ft | 370 kts | 23° |
| 2026-05-09 20:03 | 33.91511 | -78.70200 | 12007 ft | 374 kts | 23° |
| 2026-05-09 20:04 | 33.93806 | -78.68742 | 12672 ft | 378 kts | 23° |
| 2026-05-09 20:04 | 33.96164 | -78.67240 | 13327 ft | 381 kts | 22° |
| 2026-05-09 20:04 | 33.98517 | -78.65741 | 13960 ft | 384 kts | 22° |
| 2026-05-09 20:04 | 34.00857 | -78.64249 | 14554 ft | 388 kts | 22° |
| 2026-05-09 20:05 | 34.03289 | -78.62702 | 15160 ft | 391 kts | 22° |
| 2026-05-09 20:05 | 34.05713 | -78.61165 | 15739 ft | 395 kts | 22° |
| 2026-05-09 20:05 | 34.08157 | -78.59617 | 16295 ft | 399 kts | 22° |
| 2026-05-09 20:05 | 34.10627 | -78.58050 | 16864 ft | 402 kts | 22° |
| 2026-05-09 20:06 | 34.13109 | -78.56471 | 17428 ft | 406 kts | 22° |
| 2026-05-09 20:06 | 34.15614 | -78.54874 | 17989 ft | 409 kts | 22° |
| 2026-05-09 20:06 | 34.18140 | -78.53260 | 18553 ft | 412 kts | 21° |
| 2026-05-09 20:06 | 34.20687 | -78.51633 | 19119 ft | 415 kts | 21° |
| 2026-05-09 20:07 | 34.23246 | -78.49999 | 19686 ft | 419 kts | 22° |
| 2026-05-09 20:07 | 34.25736 | -78.48083 | 20243 ft | 429 kts | 32° |
| 2026-05-09 20:07 | 34.28015 | -78.45716 | 20780 ft | 435 kts | 36° |
| 2026-05-09 20:07 | 34.30292 | -78.43281 | 21311 ft | 438 kts | 36° |
| 2026-05-09 20:08 | 34.32586 | -78.40831 | 21818 ft | 441 kts | 36° |
| 2026-05-09 20:08 | 34.37218 | -78.35879 | 22788 ft | 448 kts | 35° |
| 2026-05-09 20:08 | 34.39566 | -78.33368 | 23241 ft | 451 kts | 35° |
| 2026-05-09 20:09 | 34.41920 | -78.30852 | 23689 ft | 454 kts | 35° |
| 2026-05-09 20:09 | 34.44302 | -78.28302 | 24134 ft | 457 kts | 35° |
| 2026-05-09 20:09 | 34.46683 | -78.25749 | 24558 ft | 460 kts | 35° |
| 2026-05-09 20:09 | 34.49091 | -78.23165 | 24942 ft | 463 kts | 35° |
| 2026-05-09 20:10 | 34.51517 | -78.20565 | 25316 ft | 467 kts | 35° |
| 2026-05-09 20:10 | 34.53959 | -78.17947 | 25668 ft | 471 kts | 35° |
| 2026-05-09 20:10 | 34.56411 | -78.15310 | 26031 ft | 474 kts | 35° |
| 2026-05-09 20:10 | 34.58889 | -78.12635 | 26367 ft | 478 kts | 35° |
| 2026-05-09 20:11 | 34.61409 | -78.09910 | 26713 ft | 481 kts | 35° |
| 2026-05-09 20:11 | 34.63887 | -78.07233 | 27031 ft | 484 kts | 35° |
| 2026-05-09 20:11 | 34.66441 | -78.04479 | 27355 ft | 487 kts | 35° |
| 2026-05-09 20:11 | 34.68990 | -78.01734 | 27669 ft | 490 kts | 34° |
| 2026-05-09 20:12 | 34.71549 | -77.98977 | 27986 ft | 493 kts | 34° |
| 2026-05-09 20:12 | 34.74092 | -77.96227 | 28281 ft | 497 kts | 34° |
| 2026-05-09 20:12 | 34.76678 | -77.93422 | 28555 ft | 500 kts | 34° |
| 2026-05-09 20:12 | 34.79277 | -77.90604 | 28838 ft | 503 kts | 34° |
| 2026-05-09 20:13 | 34.81911 | -77.87744 | 29124 ft | 506 kts | 34° |
| 2026-05-09 20:13 | 34.84533 | -77.84894 | 29402 ft | 509 kts | 34° |
| 2026-05-09 20:13 | 34.87219 | -77.81973 | 29694 ft | 512 kts | 34° |
| 2026-05-09 20:13 | 34.89902 | -77.79114 | 29982 ft | 514 kts | 33° |
| 2026-05-09 20:14 | 34.92630 | -77.76279 | 30242 ft | 516 kts | 32° |
| 2026-05-09 20:14 | 34.95393 | -77.73452 | 30512 ft | 519 kts | 32° |
| 2026-05-09 20:14 | 34.98132 | -77.70662 | 30799 ft | 521 kts | 31° |
| 2026-05-09 20:14 | 35.00906 | -77.67825 | 31188 ft | 521 kts | 31° |
| 2026-05-09 20:15 | 35.03670 | -77.64976 | 31565 ft | 521 kts | 31° |
| 2026-05-09 20:15 | 35.06431 | -77.62112 | 31929 ft | 521 kts | 31° |
| 2026-05-09 20:15 | 35.09189 | -77.59235 | 32270 ft | 522 kts | 31° |
| 2026-05-09 20:15 | 35.11949 | -77.56349 | 32614 ft | 522 kts | 31° |
| 2026-05-09 20:16 | 35.14830 | -77.53634 | 32942 ft | 512 kts | 22° |
| 2026-05-09 20:16 | 35.17805 | -77.51380 | 33225 ft | 509 kts | 20° |
| 2026-05-09 20:16 | 35.20872 | -77.49098 | 33556 ft | 509 kts | 19° |
| 2026-05-09 20:16 | 35.23862 | -77.46875 | 33892 ft | 510 kts | 19° |
| 2026-05-09 20:17 | 35.26930 | -77.44591 | 34230 ft | 510 kts | 19° |
| 2026-05-09 20:17 | 35.29964 | -77.42327 | 34540 ft | 510 kts | 19° |
| 2026-05-09 20:17 | 35.32953 | -77.40090 | 34878 ft | 510 kts | 19° |
| 2026-05-09 20:17 | 35.35972 | -77.37821 | 35190 ft | 509 kts | 19° |
| 2026-05-09 20:18 | 35.39030 | -77.35524 | 35489 ft | 509 kts | 19° |
| 2026-05-09 20:18 | 35.42043 | -77.33260 | 35812 ft | 508 kts | 18° |
| 2026-05-09 20:18 | 35.45053 | -77.30996 | 36118 ft | 507 kts | 18° |
| 2026-05-09 20:18 | 35.48052 | -77.28739 | 36418 ft | 505 kts | 18° |
| 2026-05-09 20:19 | 35.51044 | -77.26484 | 36695 ft | 505 kts | 18° |
| 2026-05-09 20:19 | 35.54033 | -77.24230 | 36890 ft | 504 kts | 18° |
| 2026-05-09 20:19 | 35.57019 | -77.21977 | 36947 ft | 503 kts | 17° |
| 2026-05-09 20:20 | 35.62954 | -77.17489 | 36943 ft | 499 kts | 17° |
| 2026-05-09 20:20 | 35.68845 | -77.13022 | 36943 ft | 497 kts | 17° |
| 2026-05-09 20:21 | 35.74737 | -77.08579 | 36932 ft | 496 kts | 17° |
| 2026-05-09 20:21 | 35.80625 | -77.04138 | 36934 ft | 497 kts | 17° |
| 2026-05-09 20:22 | 35.86528 | -76.99658 | 36940 ft | 498 kts | 17° |
| 2026-05-09 20:22 | 35.92414 | -76.95188 | 36945 ft | 497 kts | 16° |
| 2026-05-09 20:23 | 35.97386 | -76.91711 | 36948 ft | 490 kts | 13° |
| 2026-05-09 20:23 | 36.03422 | -76.87831 | 36941 ft | 488 kts | 12° |
| 2026-05-09 20:24 | 36.09507 | -76.83914 | 36918 ft | 492 kts | 13° |
| 2026-05-09 20:24 | 36.15541 | -76.79908 | 36931 ft | 494 kts | 14° |
| 2026-05-09 20:25 | 36.21593 | -76.75822 | 36940 ft | 495 kts | 14° |
| 2026-05-09 20:25 | 36.27646 | -76.71736 | 36945 ft | 495 kts | 14° |
| 2026-05-09 20:26 | 36.33700 | -76.67673 | 36949 ft | 495 kts | 14° |
| 2026-05-09 20:26 | 36.39761 | -76.63602 | 36945 ft | 496 kts | 14° |
| 2026-05-09 20:27 | 36.45821 | -76.59523 | 36942 ft | 495 kts | 14° |
| 2026-05-09 20:27 | 36.51876 | -76.55434 | 36942 ft | 495 kts | 14° |
| 2026-05-09 20:28 | 36.57930 | -76.51339 | 36941 ft | 495 kts | 14° |
| 2026-05-09 20:28 | 36.63971 | -76.47235 | 36945 ft | 495 kts | 14° |
| 2026-05-09 20:29 | 36.73025 | -76.41089 | 36939 ft | 493 kts | 14° |
| 2026-05-09 20:29 | 36.79049 | -76.37000 | 36937 ft | 493 kts | 14° |
| 2026-05-09 20:30 | 36.85059 | -76.32909 | 36936 ft | 492 kts | 14° |
| 2026-05-09 20:30 | 36.91069 | -76.28793 | 36939 ft | 492 kts | 15° |
| 2026-05-09 20:31 | 36.97077 | -76.24677 | 36943 ft | 492 kts | 15° |
| 2026-05-09 20:31 | 37.03070 | -76.20565 | 36940 ft | 492 kts | 15° |
| 2026-05-09 20:32 | 37.09077 | -76.16442 | 36931 ft | 492 kts | 15° |
| 2026-05-09 20:32 | 37.15072 | -76.12318 | 36916 ft | 491 kts | 15° |
| 2026-05-09 20:33 | 37.21057 | -76.08192 | 36920 ft | 492 kts | 15° |
| 2026-05-09 20:33 | 37.27050 | -76.04046 | 36925 ft | 491 kts | 15° |
| 2026-05-09 20:34 | 37.33029 | -75.99916 | 36930 ft | 490 kts | 15° |
| 2026-05-09 20:34 | 37.38999 | -75.95801 | 36935 ft | 489 kts | 15° |
| 2026-05-09 20:35 | 37.44974 | -75.91675 | 36936 ft | 489 kts | 15° |
| 2026-05-09 20:35 | 37.50926 | -75.87531 | 36936 ft | 489 kts | 16° |
| 2026-05-09 20:36 | 37.56854 | -75.83307 | 36934 ft | 491 kts | 17° |
| 2026-05-09 20:36 | 37.62775 | -75.78832 | 36934 ft | 493 kts | 19° |
| 2026-05-09 20:37 | 37.68593 | -75.74379 | 36932 ft | 492 kts | 18° |
| 2026-05-09 20:37 | 37.74455 | -75.69952 | 36933 ft | 490 kts | 18° |
| 2026-05-09 20:38 | 37.80355 | -75.65528 | 36938 ft | 490 kts | 18° |
| 2026-05-09 20:38 | 37.86198 | -75.61069 | 36941 ft | 493 kts | 20° |
| 2026-05-09 20:39 | 37.91921 | -75.56174 | 36694 ft | 499 kts | 23° |
| 2026-05-09 20:39 | 37.94782 | -75.53607 | 35634 ft | 510 kts | 24° |
| 2026-05-09 20:39 | 37.97658 | -75.51017 | 34706 ft | 515 kts | 24° |
| 2026-05-09 20:40 | 38.00622 | -75.48355 | 33936 ft | 515 kts | 24° |
| 2026-05-09 20:40 | 38.03558 | -75.45745 | 33246 ft | 513 kts | 24° |
| 2026-05-09 20:40 | 38.06518 | -75.43519 | 32795 ft | 491 kts | 14° |
| 2026-05-09 20:40 | 38.09634 | -75.41713 | 32216 ft | 485 kts | 13° |
| 2026-05-09 20:41 | 38.12678 | -75.39932 | 31733 ft | 480 kts | 14° |
| 2026-05-09 20:41 | 38.15699 | -75.38140 | 31286 ft | 475 kts | 15° |
| 2026-05-09 20:41 | 38.18679 | -75.36361 | 30703 ft | 473 kts | 15° |
| 2026-05-09 20:41 | 38.21631 | -75.34597 | 30348 ft | 465 kts | 16° |
| 2026-05-09 20:42 | 38.24541 | -75.32862 | 29808 ft | 461 kts | 16° |
| 2026-05-09 20:42 | 38.27433 | -75.31142 | 29372 ft | 455 kts | 16° |
| 2026-05-09 20:42 | 38.30299 | -75.29444 | 28715 ft | 455 kts | 17° |
| 2026-05-09 20:42 | 38.33157 | -75.27752 | 28242 ft | 451 kts | 17° |
| 2026-05-09 20:43 | 38.35984 | -75.26073 | 27792 ft | 446 kts | 17° |
| 2026-05-09 20:43 | 38.38783 | -75.24406 | 27353 ft | 442 kts | 18° |
| 2026-05-09 20:43 | 38.41556 | -75.22756 | 26918 ft | 438 kts | 18° |
| 2026-05-09 20:43 | 38.44307 | -75.21119 | 26494 ft | 435 kts | 18° |
| 2026-05-09 20:44 | 38.47039 | -75.19493 | 26075 ft | 432 kts | 18° |
| 2026-05-09 20:44 | 38.49756 | -75.17875 | 25635 ft | 430 kts | 18° |
| 2026-05-09 20:44 | 38.52462 | -75.16263 | 25214 ft | 429 kts | 19° |
| 2026-05-09 20:44 | 38.55157 | -75.14652 | 24777 ft | 427 kts | 19° |
| 2026-05-09 20:45 | 38.57848 | -75.13039 | 24331 ft | 426 kts | 19° |
| 2026-05-09 20:45 | 38.60528 | -75.11431 | 23882 ft | 425 kts | 19° |
| 2026-05-09 20:45 | 38.63204 | -75.09825 | 23400 ft | 425 kts | 19° |
| 2026-05-09 20:45 | 38.65876 | -75.08217 | 22923 ft | 424 kts | 20° |
| 2026-05-09 20:46 | 38.68533 | -75.06566 | 22427 ft | 425 kts | 21° |
| 2026-05-09 20:46 | 38.71171 | -75.04878 | 21938 ft | 423 kts | 21° |
| 2026-05-09 20:46 | 38.73762 | -75.03189 | 21422 ft | 411 kts | 21° |
| 2026-05-09 20:46 | 38.76258 | -75.01548 | 20957 ft | 397 kts | 21° |
| 2026-05-09 20:47 | 38.78690 | -74.99953 | 20495 ft | 390 kts | 21° |
| 2026-05-09 20:47 | 38.81102 | -74.98386 | 20033 ft | 389 kts | 21° |
| 2026-05-09 20:47 | 38.83512 | -74.96832 | 19570 ft | 387 kts | 21° |
| 2026-05-09 20:47 | 38.85919 | -74.95288 | 19106 ft | 386 kts | 21° |
| 2026-05-09 20:48 | 38.88318 | -74.93752 | 18642 ft | 385 kts | 21° |
| 2026-05-09 20:48 | 38.90711 | -74.92218 | 18187 ft | 383 kts | 21° |
| 2026-05-09 20:48 | 38.93064 | -74.90701 | 17861 ft | 369 kts | 21° |
| 2026-05-09 20:48 | 38.95304 | -74.89243 | 17454 ft | 356 kts | 21° |
| 2026-05-09 20:49 | 38.97498 | -74.87818 | 16955 ft | 352 kts | 21° |
| 2026-05-09 20:49 | 38.99680 | -74.86406 | 16526 ft | 349 kts | 21° |
| 2026-05-09 20:49 | 39.01801 | -74.85034 | 16286 ft | 332 kts | 21° |
| 2026-05-09 20:49 | 39.03833 | -74.83715 | 15873 ft | 324 kts | 21° |
| 2026-05-09 20:50 | 39.05838 | -74.82414 | 15344 ft | 321 kts | 21° |
| 2026-05-09 20:50 | 39.07825 | -74.81124 | 14931 ft | 320 kts | 22° |
| 2026-05-09 20:50 | 39.09861 | -74.79997 | 14569 ft | 317 kts | 12° |
| 2026-05-09 20:50 | 39.11948 | -74.79327 | 14425 ft | 303 kts | 7° |
| 2026-05-09 20:51 | 39.13953 | -74.78732 | 14195 ft | 290 kts | 7° |
| 2026-05-09 20:51 | 39.15901 | -74.78141 | 13774 ft | 285 kts | 7° |
| 2026-05-09 20:51 | 39.17823 | -74.77557 | 13281 ft | 284 kts | 7° |
| 2026-05-09 20:51 | 39.19741 | -74.76973 | 12777 ft | 283 kts | 8° |
| 2026-05-09 20:52 | 39.21654 | -74.76389 | 12370 ft | 282 kts | 8° |
| 2026-05-09 20:52 | 39.23568 | -74.75807 | 12019 ft | 282 kts | 8° |
| 2026-05-09 20:52 | 39.25458 | -74.75237 | 11635 ft | 276 kts | 8° |
| 2026-05-09 20:52 | 39.27308 | -74.74679 | 11310 ft | 271 kts | 8° |
| 2026-05-09 20:53 | 39.29135 | -74.74128 | 10963 ft | 268 kts | 8° |
| 2026-05-09 20:53 | 39.30921 | -74.73590 | 10738 ft | 257 kts | 9° |
| 2026-05-09 20:53 | 39.32616 | -74.73075 | 10534 ft | 245 kts | 8° |
| 2026-05-09 20:53 | 39.34268 | -74.72573 | 10164 ft | 242 kts | 9° |
| 2026-05-09 20:54 | 39.35918 | -74.72077 | 9575 ft | 250 kts | 9° |
| 2026-05-09 20:54 | 39.37672 | -74.71557 | 8749 ft | 267 kts | 9° |
| 2026-05-09 20:54 | 39.39508 | -74.71007 | 8162 ft | 272 kts | 10° |
| 2026-05-09 20:54 | 39.41350 | -74.70452 | 7667 ft | 272 kts | 10° |
| 2026-05-09 20:55 | 39.43186 | -74.69896 | 7213 ft | 271 kts | 11° |
| 2026-05-09 20:55 | 39.45020 | -74.69338 | 6685 ft | 272 kts | 11° |
| 2026-05-09 20:55 | 39.46871 | -74.68840 | 6164 ft | 270 kts | 0° |
| 2026-05-09 20:55 | 39.48696 | -74.69079 | 5820 ft | 263 kts | 341° |
| 2026-05-09 20:56 | 39.50497 | -74.69498 | 5512 ft | 258 kts | 347° |
| 2026-05-09 20:56 | 39.53933 | -74.70060 | 4863 ft | 246 kts | 348° |
| 2026-05-09 20:56 | 39.55629 | -74.70330 | 4413 ft | 245 kts | 348° |
| 2026-05-09 20:57 | 39.57340 | -74.70605 | 3956 ft | 244 kts | 348° |
| 2026-05-09 20:57 | 39.59014 | -74.70883 | 3518 ft | 242 kts | 348° |
| 2026-05-09 20:57 | 39.60699 | -74.71030 | 3096 ft | 248 kts | 4° |
| 2026-05-09 20:57 | 39.62300 | -74.70290 | 2902 ft | 240 kts | 37° |
| 2026-05-09 20:58 | 39.63403 | -74.68831 | 2777 ft | 223 kts | 66° |
| 2026-05-09 20:58 | 39.63805 | -74.67627 | 2702 ft | 212 kts | 82° |
| 2026-05-09 20:58 | 39.64119 | -74.65935 | 2588 ft | 206 kts | 88° |
| 2026-05-09 20:58 | 39.64236 | -74.64115 | 2474 ft | 199 kts | 98° |
| 2026-05-09 20:59 | 39.64116 | -74.62361 | 2349 ft | 193 kts | 107° |
| 2026-05-09 20:59 | 39.63790 | -74.60727 | 2274 ft | 182 kts | 116° |
| 2026-05-09 20:59 | 39.63316 | -74.59237 | 2139 ft | 178 kts | 120° |
| 2026-05-09 21:00 | 39.62356 | -74.56320 | 1876 ft | 174 kts | 119° |
| 2026-05-09 21:00 | 39.61887 | -74.54888 | 1738 ft | 168 kts | 118° |
| 2026-05-09 21:00 | 39.61312 | -74.53630 | 1773 ft | 160 kts | 136° |
| 2026-05-09 21:00 | 39.60473 | -74.52720 | 1805 ft | 156 kts | 154° |
| 2026-05-09 21:01 | 39.59475 | -74.52229 | 1731 ft | 153 kts | 172° |
| 2026-05-09 21:01 | 39.58417 | -74.52179 | 1621 ft | 151 kts | 188° |
| 2026-05-09 21:01 | 39.57440 | -74.52462 | 1513 ft | 141 kts | 193° |
| 2026-05-09 21:02 | 39.55572 | -74.53025 | 1592 ft | 137 kts | 193° |
| 2026-05-09 21:02 | 39.54646 | -74.53301 | 1596 ft | 136 kts | 193° |
| 2026-05-09 21:02 | 39.53718 | -74.53578 | 1548 ft | 138 kts | 192° |
| 2026-05-09 21:02 | 39.52787 | -74.53851 | 1454 ft | 138 kts | 192° |
| 2026-05-09 21:03 | 39.51849 | -74.54139 | 1321 ft | 139 kts | 194° |
| 2026-05-09 21:03 | 39.50927 | -74.54510 | 1125 ft | 139 kts | 201° |
| 2026-05-09 21:03 | 39.50054 | -74.55053 | 963 ft | 139 kts | 206° |
| 2026-05-09 21:03 | 39.49193 | -74.55623 | 761 ft | 139 kts | 206° |
| 2026-05-09 21:04 | 39.48339 | -74.56210 | 579 ft | 139 kts | 207° |
| 2026-05-09 21:04 | 39.47481 | -74.56799 | 392 ft | 139 kts | 207° |
| 2026-05-09 21:04 | 39.46625 | -74.57386 | 183 ft | 140 kts | 207° |
| 2026-05-09 21:04 | 39.45797 | -74.57949 | 69 ft | 119 kts | 208° |
| 2026-05-09 21:05 | 39.45221 | -74.58344 | 70 ft | 64 kts | 207° |
| 2026-05-09 21:05 | 39.45028 | -74.58474 | 71 ft | 10 kts | 209° |
| 2026-05-09 21:05 | 39.44963 | -74.58463 | 71 ft | 11 kts | 127° |
| 2026-05-09 21:05 | 39.44933 | -74.58369 | 71 ft | 9 kts | 99° |
| 2026-05-09 21:06 | 39.44977 | -74.58314 | 71 ft | 10 kts | 26° |
| 2026-05-09 21:06 | 39.45045 | -74.58268 | 71 ft | 12 kts | 28° |
| 2026-05-09 21:06 | 39.45124 | -74.58213 | 72 ft | 14 kts | 28° |
| 2026-05-09 21:06 | 39.45191 | -74.58146 | 72 ft | 10 kts | 82° |
| 2026-05-09 21:07 | 39.45145 | -74.58072 | 72 ft | 12 kts | 136° |
| 2026-05-09 21:07 | 39.45090 | -74.57997 | 73 ft | 10 kts | 118° |
| 2026-05-09 21:07 | 39.45108 | -74.57905 | 73 ft | 13 kts | 55° |
| 2026-05-09 21:07 | 39.45169 | -74.57792 | 74 ft | 17 kts | 57° |
| 2026-05-09 21:08 | 39.45238 | -74.57661 | 74 ft | 19 kts | 55° |
| 2026-05-09 21:08 | 39.45311 | -74.57524 | 75 ft | 19 kts | 56° |
| 2026-05-09 21:08 | 39.45322 | -74.57433 | 75 ft | 10 kts | 113° |
| 2026-05-09 21:08 | 39.45258 | -74.57379 | 75 ft | 12 kts | 147° |
| 2026-05-09 21:09 | 39.45256 | -74.57286 | 75 ft | 9 kts | 56° |
| 2026-05-09 21:09 | 39.45294 | -74.57215 | 75 ft | 10 kts | 56° |
| 2026-05-09 21:09 | 39.45275 | -74.57176 | 74 ft | 4 kts | 169° |
| 2026-05-09 21:09 | 39.45234 | -74.57189 | 74 ft | 7 kts | 191° |
| 2026-05-09 21:10 | 39.45226 | -74.57191 | 74 ft | 0 kts | 191° |